sensor_id;sensor_type;location;lat;lon;timestamp;pressure;altitude;pressure_sealevel;temperature;humidity
43480;BME280;29067;35.492;-97.520;2023-04-09T00:02:14;97516.69;;;20.82;13.78
43480;BME280;29067;35.492;-97.520;2023-04-09T00:04:47;97515.96;;;21.28;13.92
43480;BME280;29067;35.492;-97.520;2023-04-09T00:07:15;97515.62;;;19.52;14.25
43480;BME280;29067;35.492;-97.520;2023-04-09T00:09:43;97516.48;;;20.64;14.01
43480;BME280;29067;35.492;-97.520;2023-04-09T00:12:11;97518.46;;;20.65;14.21
43480;BME280;29067;35.492;-97.520;2023-04-09T00:14:39;97517.23;;;20.53;14.10
43480;BME280;29067;35.492;-97.520;2023-04-09T00:17:08;97518.31;;;20.24;14.32
43480;BME280;29067;35.492;-97.520;2023-04-09T00:19:36;97518.83;;;21.37;14.33
43480;BME280;29067;35.492;-97.520;2023-04-09T00:22:04;97522.32;;;18.97;14.87
43480;BME280;29067;35.492;-97.520;2023-04-09T00:24:32;97517.24;;;20.71;14.36
43480;BME280;29067;35.492;-97.520;2023-04-09T00:27:20;97522.23;;;20.87;14.57
43480;BME280;29067;35.492;-97.520;2023-04-09T00:29:49;97523.16;;;20.36;14.60
43480;BME280;29067;35.492;-97.520;2023-04-09T00:32:17;97534.95;;;18.77;15.59
43480;BME280;29067;35.492;-97.520;2023-04-09T00:34:45;97536.44;;;18.01;15.62
43480;BME280;29067;35.492;-97.520;2023-04-09T00:37:14;97539.08;;;19.29;15.07
43480;BME280;29067;35.492;-97.520;2023-04-09T00:39:43;97537.96;;;18.90;15.22
43480;BME280;29067;35.492;-97.520;2023-04-09T00:42:11;97540.25;;;19.57;15.21
43480;BME280;29067;35.492;-97.520;2023-04-09T00:44:39;97546.50;;;18.12;15.68
43480;BME280;29067;35.492;-97.520;2023-04-09T00:47:06;97544.42;;;19.29;15.20
43480;BME280;29067;35.492;-97.520;2023-04-09T00:49:34;97540.53;;;20.36;15.05
43480;BME280;29067;35.492;-97.520;2023-04-09T00:52:02;97546.89;;;18.88;15.26
43480;BME280;29067;35.492;-97.520;2023-04-09T00:54:31;97547.45;;;19.54;15.08
43480;BME280;29067;35.492;-97.520;2023-04-09T00:56:59;97553.90;;;19.53;15.56
43480;BME280;29067;35.492;-97.520;2023-04-09T00:59:28;97546.41;;;20.64;15.82
43480;BME280;29067;35.492;-97.520;2023-04-09T01:01:56;97553.42;;;19.91;16.49
43480;BME280;29067;35.492;-97.520;2023-04-09T01:04:24;97553.35;;;19.95;15.90
43480;BME280;29067;35.492;-97.520;2023-04-09T01:06:58;97552.08;;;21.06;16.51
43480;BME280;29067;35.492;-97.520;2023-04-09T01:09:35;97555.52;;;20.93;15.42
43480;BME280;29067;35.492;-97.520;2023-04-09T01:12:11;97559.42;;;20.87;15.75
43480;BME280;29067;35.492;-97.520;2023-04-09T01:14:50;97560.01;;;21.90;16.40
43480;BME280;29067;35.492;-97.520;2023-04-09T01:17:25;97561.86;;;21.21;15.95
43480;BME280;29067;35.492;-97.520;2023-04-09T01:20:04;97566.31;;;20.64;16.41
43480;BME280;29067;35.492;-97.520;2023-04-09T01:22:47;97569.45;;;21.00;16.42
43480;BME280;29067;35.492;-97.520;2023-04-09T01:25:28;97570.26;;;20.53;16.09
43480;BME280;29067;35.492;-97.520;2023-04-09T01:28:16;97572.12;;;20.52;15.92
43480;BME280;29067;35.492;-97.520;2023-04-09T01:30:49;97572.77;;;21.17;17.52
43480;BME280;29067;35.492;-97.520;2023-04-09T01:33:19;97572.21;;;21.67;16.82
43480;BME280;29067;35.492;-97.520;2023-04-09T01:35:49;97571.30;;;19.88;16.22
43480;BME280;29067;35.492;-97.520;2023-04-09T01:38:21;97573.05;;;21.22;16.01
43480;BME280;29067;35.492;-97.520;2023-04-09T01:40:50;97570.46;;;21.05;16.21
43480;BME280;29067;35.492;-97.520;2023-04-09T01:43:19;97571.27;;;21.47;16.30
43480;BME280;29067;35.492;-97.520;2023-04-09T01:45:48;97573.75;;;20.14;16.35
43480;BME280;29067;35.492;-97.520;2023-04-09T01:48:18;97582.81;;;19.16;16.91
43480;BME280;29067;35.492;-97.520;2023-04-09T01:50:47;97585.52;;;19.55;16.71
43480;BME280;29067;35.492;-97.520;2023-04-09T01:53:15;97584.14;;;20.52;16.40
43480;BME280;29067;35.492;-97.520;2023-04-09T01:55:43;97596.29;;;19.14;17.05
43480;BME280;29067;35.492;-97.520;2023-04-09T01:58:11;97601.88;;;18.78;17.81
43480;BME280;29067;35.492;-97.520;2023-04-09T02:00:45;97604.62;;;19.31;17.42
43480;BME280;29067;35.492;-97.520;2023-04-09T02:03:18;97605.90;;;20.54;17.86
43480;BME280;29067;35.492;-97.520;2023-04-09T02:05:53;97616.04;;;19.95;18.03
43480;BME280;29067;35.492;-97.520;2023-04-09T02:08:23;97621.25;;;19.48;17.83
43480;BME280;29067;35.492;-97.520;2023-04-09T02:10:57;97622.44;;;18.09;18.52
43480;BME280;29067;35.492;-97.520;2023-04-09T02:13:27;97626.39;;;18.37;18.57
43480;BME280;29067;35.492;-97.520;2023-04-09T02:15:56;97630.85;;;17.49;20.02
43480;BME280;29067;35.492;-97.520;2023-04-09T02:18:26;97629.03;;;18.47;19.17
43480;BME280;29067;35.492;-97.520;2023-04-09T02:20:56;97631.09;;;17.37;19.75
43480;BME280;29067;35.492;-97.520;2023-04-09T02:23:24;97632.72;;;17.73;19.51
43480;BME280;29067;35.492;-97.520;2023-04-09T02:25:53;97637.61;;;17.88;19.63
43480;BME280;29067;35.492;-97.520;2023-04-09T02:28:21;97639.87;;;17.79;19.68
43480;BME280;29067;35.492;-97.520;2023-04-09T02:30:49;97641.51;;;16.73;20.62
43480;BME280;29067;35.492;-97.520;2023-04-09T02:33:18;97642.83;;;16.75;20.29
43480;BME280;29067;35.492;-97.520;2023-04-09T02:35:45;97644.82;;;17.95;21.77
43480;BME280;29067;35.492;-97.520;2023-04-09T02:38:13;97645.10;;;18.35;20.93
43480;BME280;29067;35.492;-97.520;2023-04-09T02:40:41;97648.96;;;17.30;20.27
43480;BME280;29067;35.492;-97.520;2023-04-09T02:43:10;97653.18;;;17.72;20.59
43480;BME280;29067;35.492;-97.520;2023-04-09T02:45:37;97661.33;;;17.46;21.36
43480;BME280;29067;35.492;-97.520;2023-04-09T02:48:05;97661.80;;;17.79;20.92
43480;BME280;29067;35.492;-97.520;2023-04-09T02:50:34;97668.28;;;17.49;20.06
43480;BME280;29067;35.492;-97.520;2023-04-09T02:53:02;97669.50;;;18.09;20.76
43480;BME280;29067;35.492;-97.520;2023-04-09T02:55:30;97673.17;;;18.21;21.72
43480;BME280;29067;35.492;-97.520;2023-04-09T02:57:58;97673.92;;;17.48;20.63
43480;BME280;29067;35.492;-97.520;2023-04-09T03:00:26;97675.45;;;17.36;20.70
43480;BME280;29067;35.492;-97.520;2023-04-09T03:02:54;97683.02;;;16.83;21.12
43480;BME280;29067;35.492;-97.520;2023-04-09T03:05:22;97684.89;;;16.29;21.64
43480;BME280;29067;35.492;-97.520;2023-04-09T03:07:50;97688.32;;;16.13;22.65
43480;BME280;29067;35.492;-97.520;2023-04-09T03:10:18;97688.59;;;16.82;21.26
43480;BME280;29067;35.492;-97.520;2023-04-09T03:12:46;97688.27;;;16.98;22.30
43480;BME280;29067;35.492;-97.520;2023-04-09T03:15:14;97688.03;;;17.21;21.94
43480;BME280;29067;35.492;-97.520;2023-04-09T03:17:42;97683.36;;;17.56;20.97
43480;BME280;29067;35.492;-97.520;2023-04-09T03:20:10;97688.15;;;16.82;21.28
43480;BME280;29067;35.492;-97.520;2023-04-09T03:22:38;97690.67;;;17.04;20.96
43480;BME280;29067;35.492;-97.520;2023-04-09T03:25:07;97695.34;;;16.69;20.96
43480;BME280;29067;35.492;-97.520;2023-04-09T03:27:43;97697.05;;;16.92;21.23
43480;BME280;29067;35.492;-97.520;2023-04-09T03:30:12;97701.34;;;16.50;20.73
43480;BME280;29067;35.492;-97.520;2023-04-09T03:32:41;97703.18;;;17.91;21.35
43480;BME280;29067;35.492;-97.520;2023-04-09T03:35:19;97707.19;;;17.81;20.59
43480;BME280;29067;35.492;-97.520;2023-04-09T03:37:47;97714.01;;;16.18;22.19
43480;BME280;29067;35.492;-97.520;2023-04-09T03:40:15;97712.01;;;17.25;20.86
43480;BME280;29067;35.492;-97.520;2023-04-09T03:42:43;97714.42;;;17.01;21.23
43480;BME280;29067;35.492;-97.520;2023-04-09T03:45:11;97716.53;;;17.81;21.04
43480;BME280;29067;35.492;-97.520;2023-04-09T03:47:39;97717.94;;;16.47;21.39
43480;BME280;29067;35.492;-97.520;2023-04-09T03:50:07;97719.68;;;15.40;21.75
43480;BME280;29067;35.492;-97.520;2023-04-09T03:52:35;97717.09;;;16.36;22.39
43480;BME280;29067;35.492;-97.520;2023-04-09T03:55:04;97723.24;;;16.16;21.69
43480;BME280;29067;35.492;-97.520;2023-04-09T03:57:32;97725.78;;;15.72;22.09
43480;BME280;29067;35.492;-97.520;2023-04-09T04:00:00;97725.76;;;15.33;22.51
43480;BME280;29067;35.492;-97.520;2023-04-09T04:02:27;97726.19;;;15.36;23.39
43480;BME280;29067;35.492;-97.520;2023-04-09T04:04:55;97726.97;;;15.71;22.97
43480;BME280;29067;35.492;-97.520;2023-04-09T04:07:23;97728.21;;;15.89;23.37
43480;BME280;29067;35.492;-97.520;2023-04-09T04:09:51;97725.10;;;16.09;22.20
43480;BME280;29067;35.492;-97.520;2023-04-09T04:12:19;97728.06;;;15.98;22.60
43480;BME280;29067;35.492;-97.520;2023-04-09T04:14:46;97732.87;;;15.95;22.53
43480;BME280;29067;35.492;-97.520;2023-04-09T04:17:14;97740.34;;;14.16;22.81
43480;BME280;29067;35.492;-97.520;2023-04-09T04:19:42;97747.73;;;12.93;24.21
43480;BME280;29067;35.492;-97.520;2023-04-09T04:22:10;97742.44;;;14.08;23.36
43480;BME280;29067;35.492;-97.520;2023-04-09T04:24:38;97745.83;;;15.33;23.02
43480;BME280;29067;35.492;-97.520;2023-04-09T04:27:06;97741.26;;;15.28;23.20
43480;BME280;29067;35.492;-97.520;2023-04-09T04:29:34;97740.79;;;14.97;23.17
43480;BME280;29067;35.492;-97.520;2023-04-09T04:32:01;97739.06;;;14.56;23.62
43480;BME280;29067;35.492;-97.520;2023-04-09T04:34:30;97741.47;;;13.87;23.97
43480;BME280;29067;35.492;-97.520;2023-04-09T04:36:58;97740.25;;;14.63;23.88
43480;BME280;29067;35.492;-97.520;2023-04-09T04:39:26;97739.54;;;14.20;24.28
43480;BME280;29067;35.492;-97.520;2023-04-09T04:41:54;97742.75;;;15.77;23.23
43480;BME280;29067;35.492;-97.520;2023-04-09T04:44:22;97739.33;;;15.13;23.52
43480;BME280;29067;35.492;-97.520;2023-04-09T04:46:50;97745.83;;;14.99;23.47
43480;BME280;29067;35.492;-97.520;2023-04-09T04:49:17;97746.35;;;14.82;23.69
43480;BME280;29067;35.492;-97.520;2023-04-09T04:51:45;97743.75;;;15.39;23.92
43480;BME280;29067;35.492;-97.520;2023-04-09T04:54:13;97742.86;;;15.57;23.37
43480;BME280;29067;35.492;-97.520;2023-04-09T04:56:41;97739.77;;;14.47;23.87
43480;BME280;29067;35.492;-97.520;2023-04-09T04:59:09;97736.66;;;13.99;24.72
43480;BME280;29067;35.492;-97.520;2023-04-09T05:01:36;97736.13;;;14.43;24.19
43480;BME280;29067;35.492;-97.520;2023-04-09T05:04:04;97736.60;;;15.59;23.60
43480;BME280;29067;35.492;-97.520;2023-04-09T05:06:32;97732.86;;;14.19;24.45
43480;BME280;29067;35.492;-97.520;2023-04-09T05:09:00;97730.29;;;14.22;24.03
43480;BME280;29067;35.492;-97.520;2023-04-09T05:11:28;97734.48;;;14.46;24.08
43480;BME280;29067;35.492;-97.520;2023-04-09T05:13:56;97736.98;;;14.64;24.08
43480;BME280;29067;35.492;-97.520;2023-04-09T05:16:24;97740.40;;;14.12;24.02
43480;BME280;29067;35.492;-97.520;2023-04-09T05:18:52;97737.13;;;14.26;23.85
43480;BME280;29067;35.492;-97.520;2023-04-09T05:21:19;97738.83;;;14.36;24.10
43480;BME280;29067;35.492;-97.520;2023-04-09T05:23:47;97742.49;;;14.13;24.11
43480;BME280;29067;35.492;-97.520;2023-04-09T05:26:15;97752.93;;;14.56;24.29
43480;BME280;29067;35.492;-97.520;2023-04-09T05:28:43;97749.91;;;14.25;24.49
43480;BME280;29067;35.492;-97.520;2023-04-09T05:31:11;97750.97;;;14.05;24.07
43480;BME280;29067;35.492;-97.520;2023-04-09T05:33:38;97751.29;;;14.67;24.12
43480;BME280;29067;35.492;-97.520;2023-04-09T05:36:15;97754.04;;;14.03;24.20
43480;BME280;29067;35.492;-97.520;2023-04-09T05:38:44;97755.48;;;14.29;24.01
43480;BME280;29067;35.492;-97.520;2023-04-09T05:41:13;97758.99;;;12.93;24.90
43480;BME280;29067;35.492;-97.520;2023-04-09T05:43:42;97761.97;;;13.70;24.30
43480;BME280;29067;35.492;-97.520;2023-04-09T05:46:10;97766.15;;;13.97;24.61
43480;BME280;29067;35.492;-97.520;2023-04-09T05:48:37;97767.24;;;13.17;24.29
43480;BME280;29067;35.492;-97.520;2023-04-09T05:51:05;97768.69;;;13.01;24.51
43480;BME280;29067;35.492;-97.520;2023-04-09T05:53:33;97771.66;;;14.11;24.08
43480;BME280;29067;35.492;-97.520;2023-04-09T05:56:02;97773.23;;;13.71;24.25
43480;BME280;29067;35.492;-97.520;2023-04-09T05:58:30;97776.08;;;13.97;24.26
43480;BME280;29067;35.492;-97.520;2023-04-09T06:00:57;97777.95;;;14.44;23.61
43480;BME280;29067;35.492;-97.520;2023-04-09T06:03:25;97776.34;;;14.17;24.06
43480;BME280;29067;35.492;-97.520;2023-04-09T06:05:53;97778.67;;;14.47;24.08
43480;BME280;29067;35.492;-97.520;2023-04-09T06:08:21;97781.46;;;14.74;23.45
43480;BME280;29067;35.492;-97.520;2023-04-09T06:10:49;97792.44;;;12.93;24.14
43480;BME280;29067;35.492;-97.520;2023-04-09T06:13:17;97790.91;;;13.21;23.88
43480;BME280;29067;35.492;-97.520;2023-04-09T06:15:44;97796.84;;;13.10;24.30
43480;BME280;29067;35.492;-97.520;2023-04-09T06:18:12;97798.47;;;12.74;24.43
43480;BME280;29067;35.492;-97.520;2023-04-09T06:20:40;97802.02;;;13.44;24.25
43480;BME280;29067;35.492;-97.520;2023-04-09T06:23:08;97806.22;;;13.29;24.39
43480;BME280;29067;35.492;-97.520;2023-04-09T06:25:36;97809.47;;;13.34;24.48
43480;BME280;29067;35.492;-97.520;2023-04-09T06:28:04;97803.42;;;14.51;25.16
43480;BME280;29067;35.492;-97.520;2023-04-09T06:30:32;97802.15;;;14.30;24.33
43480;BME280;29067;35.492;-97.520;2023-04-09T06:33:00;97801.21;;;14.54;23.60
43480;BME280;29067;35.492;-97.520;2023-04-09T06:35:28;97799.61;;;13.91;23.48
43480;BME280;29067;35.492;-97.520;2023-04-09T06:37:56;97799.81;;;12.75;24.24
43480;BME280;29067;35.492;-97.520;2023-04-09T06:40:25;97798.20;;;13.33;24.11
43480;BME280;29067;35.492;-97.520;2023-04-09T06:42:53;97802.72;;;12.67;24.18
43480;BME280;29067;35.492;-97.520;2023-04-09T06:45:21;97800.42;;;13.65;23.83
43480;BME280;29067;35.492;-97.520;2023-04-09T06:47:49;97806.39;;;12.45;24.59
43480;BME280;29067;35.492;-97.520;2023-04-09T06:50:17;97800.75;;;12.95;24.45
43480;BME280;29067;35.492;-97.520;2023-04-09T06:52:44;97804.96;;;12.75;24.57
43480;BME280;29067;35.492;-97.520;2023-04-09T06:55:12;97800.20;;;12.96;24.15
43480;BME280;29067;35.492;-97.520;2023-04-09T06:57:40;97800.86;;;13.02;24.74
43480;BME280;29067;35.492;-97.520;2023-04-09T07:00:09;97807.23;;;10.34;25.72
43480;BME280;29067;35.492;-97.520;2023-04-09T07:02:37;97803.25;;;10.95;25.28
43480;BME280;29067;35.492;-97.520;2023-04-09T07:05:06;97802.44;;;10.99;25.70
43480;BME280;29067;35.492;-97.520;2023-04-09T07:07:34;97799.77;;;11.81;25.75
43480;BME280;29067;35.492;-97.520;2023-04-09T07:10:02;97799.63;;;12.25;25.26
43480;BME280;29067;35.492;-97.520;2023-04-09T07:12:31;97801.41;;;11.84;25.62
43480;BME280;29067;35.492;-97.520;2023-04-09T07:14:59;97800.08;;;12.02;25.33
43480;BME280;29067;35.492;-97.520;2023-04-09T07:17:28;97800.44;;;12.29;25.00
43480;BME280;29067;35.492;-97.520;2023-04-09T07:19:57;97801.67;;;12.19;25.34
43480;BME280;29067;35.492;-97.520;2023-04-09T07:22:27;97797.95;;;12.63;25.40
43480;BME280;29067;35.492;-97.520;2023-04-09T07:24:55;97794.72;;;13.10;24.99
43480;BME280;29067;35.492;-97.520;2023-04-09T07:27:24;97798.51;;;12.09;25.28
43480;BME280;29067;35.492;-97.520;2023-04-09T07:29:54;97799.33;;;12.98;24.83
43480;BME280;29067;35.492;-97.520;2023-04-09T07:32:22;97806.17;;;11.04;26.24
43480;BME280;29067;35.492;-97.520;2023-04-09T07:34:51;97805.59;;;10.91;26.03
43480;BME280;29067;35.492;-97.520;2023-04-09T07:37:19;97801.66;;;12.55;25.39
43480;BME280;29067;35.492;-97.520;2023-04-09T07:39:49;97796.00;;;12.58;24.97
43480;BME280;29067;35.492;-97.520;2023-04-09T07:42:17;97797.05;;;11.51;25.60
43480;BME280;29067;35.492;-97.520;2023-04-09T07:44:45;97792.37;;;12.42;25.41
43480;BME280;29067;35.492;-97.520;2023-04-09T07:47:12;97792.72;;;12.24;25.35
43480;BME280;29067;35.492;-97.520;2023-04-09T07:49:40;97789.10;;;12.91;24.68
43480;BME280;29067;35.492;-97.520;2023-04-09T07:52:08;97790.53;;;12.92;24.90
43480;BME280;29067;35.492;-97.520;2023-04-09T07:54:36;97789.24;;;13.31;24.66
43480;BME280;29067;35.492;-97.520;2023-04-09T07:57:04;97788.32;;;13.22;24.27
43480;BME280;29067;35.492;-97.520;2023-04-09T07:59:33;97793.51;;;11.71;25.01
43480;BME280;29067;35.492;-97.520;2023-04-09T08:02:01;97790.45;;;11.91;25.16
43480;BME280;29067;35.492;-97.520;2023-04-09T08:04:29;97792.95;;;12.45;25.31
43480;BME280;29067;35.492;-97.520;2023-04-09T08:06:57;97797.17;;;12.37;24.82
43480;BME280;29067;35.492;-97.520;2023-04-09T08:09:25;97796.85;;;12.25;24.67
43480;BME280;29067;35.492;-97.520;2023-04-09T08:11:53;97796.25;;;13.39;24.59
43480;BME280;29067;35.492;-97.520;2023-04-09T08:14:26;97798.35;;;12.51;25.39
43480;BME280;29067;35.492;-97.520;2023-04-09T08:16:55;97798.84;;;11.75;24.89
43480;BME280;29067;35.492;-97.520;2023-04-09T08:19:23;97795.16;;;12.65;25.09
43480;BME280;29067;35.492;-97.520;2023-04-09T08:21:50;97795.33;;;12.74;25.01
43480;BME280;29067;35.492;-97.520;2023-04-09T08:24:18;97790.83;;;12.36;24.92
43480;BME280;29067;35.492;-97.520;2023-04-09T08:26:46;97791.90;;;12.04;25.21
43480;BME280;29067;35.492;-97.520;2023-04-09T08:29:14;97787.53;;;12.60;25.06
43480;BME280;29067;35.492;-97.520;2023-04-09T08:31:42;97788.12;;;12.66;25.06
43480;BME280;29067;35.492;-97.520;2023-04-09T08:34:10;97781.92;;;12.53;24.94
43480;BME280;29067;35.492;-97.520;2023-04-09T08:36:38;97783.45;;;12.28;24.93
43480;BME280;29067;35.492;-97.520;2023-04-09T08:39:06;97780.76;;;12.17;25.05
43480;BME280;29067;35.492;-97.520;2023-04-09T08:41:36;97785.94;;;11.73;25.29
43480;BME280;29067;35.492;-97.520;2023-04-09T08:44:08;97784.16;;;12.27;25.20
43480;BME280;29067;35.492;-97.520;2023-04-09T08:46:36;97784.71;;;11.34;25.40
43480;BME280;29067;35.492;-97.520;2023-04-09T08:49:04;97783.16;;;11.92;25.50
43480;BME280;29067;35.492;-97.520;2023-04-09T08:51:32;97775.80;;;12.54;25.11
43480;BME280;29067;35.492;-97.520;2023-04-09T08:54:00;97776.17;;;12.26;25.02
43480;BME280;29067;35.492;-97.520;2023-04-09T08:56:29;97778.65;;;11.60;25.51
43480;BME280;29067;35.492;-97.520;2023-04-09T08:58:57;97780.77;;;11.54;25.79
43480;BME280;29067;35.492;-97.520;2023-04-09T09:01:26;97778.11;;;11.59;25.27
43480;BME280;29067;35.492;-97.520;2023-04-09T09:03:57;97777.59;;;11.18;26.10
43480;BME280;29067;35.492;-97.520;2023-04-09T09:06:27;97770.30;;;12.20;25.54
43480;BME280;29067;35.492;-97.520;2023-04-09T09:09:12;97773.22;;;10.64;25.91
43480;BME280;29067;35.492;-97.520;2023-04-09T09:11:42;97773.72;;;10.84;25.96
43480;BME280;29067;35.492;-97.520;2023-04-09T09:14:16;97777.65;;;11.39;26.06
43480;BME280;29067;35.492;-97.520;2023-04-09T09:17:02;97775.25;;;10.92;25.96
43480;BME280;29067;35.492;-97.520;2023-04-09T09:19:32;97775.25;;;11.35;25.91
43480;BME280;29067;35.492;-97.520;2023-04-09T09:22:02;97771.62;;;11.25;25.88
43480;BME280;29067;35.492;-97.520;2023-04-09T09:24:30;97771.74;;;11.47;25.81
43480;BME280;29067;35.492;-97.520;2023-04-09T09:26:58;97767.92;;;11.12;26.05
43480;BME280;29067;35.492;-97.520;2023-04-09T09:29:27;97767.33;;;11.78;25.38
43480;BME280;29067;35.492;-97.520;2023-04-09T09:31:55;97766.00;;;11.33;25.74
43480;BME280;29067;35.492;-97.520;2023-04-09T09:34:24;97764.34;;;12.41;25.09
43480;BME280;29067;35.492;-97.520;2023-04-09T09:36:52;97762.79;;;12.09;24.99
43480;BME280;29067;35.492;-97.520;2023-04-09T09:39:20;97763.05;;;11.33;25.71
43480;BME280;29067;35.492;-97.520;2023-04-09T09:42:06;97755.38;;;12.52;25.19
43480;BME280;29067;35.492;-97.520;2023-04-09T09:44:34;97760.22;;;11.17;25.74
43480;BME280;29067;35.492;-97.520;2023-04-09T09:47:03;97760.65;;;11.30;25.72
43480;BME280;29067;35.492;-97.520;2023-04-09T09:49:32;97767.25;;;10.64;25.93
43480;BME280;29067;35.492;-97.520;2023-04-09T09:52:02;97764.67;;;11.44;25.65
43480;BME280;29067;35.492;-97.520;2023-04-09T09:54:39;97766.41;;;11.87;25.65
43480;BME280;29067;35.492;-97.520;2023-04-09T09:57:09;97770.33;;;11.32;25.83
43480;BME280;29067;35.492;-97.520;2023-04-09T09:59:40;97772.02;;;11.65;25.79
43480;BME280;29067;35.492;-97.520;2023-04-09T10:02:18;97775.02;;;11.91;25.72
43480;BME280;29067;35.492;-97.520;2023-04-09T10:04:49;97776.20;;;11.66;26.54
43480;BME280;29067;35.492;-97.520;2023-04-09T10:07:17;97778.07;;;9.94;26.94
43480;BME280;29067;35.492;-97.520;2023-04-09T10:09:49;97775.04;;;10.89;26.54
43480;BME280;29067;35.492;-97.520;2023-04-09T10:12:20;97768.70;;;12.02;26.54
43480;BME280;29067;35.492;-97.520;2023-04-09T10:14:49;97763.55;;;11.39;25.95
43480;BME280;29067;35.492;-97.520;2023-04-09T10:17:18;97762.06;;;11.45;25.83
43480;BME280;29067;35.492;-97.520;2023-04-09T10:19:51;97761.31;;;10.98;26.07
43480;BME280;29067;35.492;-97.520;2023-04-09T10:22:24;97761.51;;;11.06;26.33
43480;BME280;29067;35.492;-97.520;2023-04-09T10:25:05;97762.59;;;10.47;26.68
43480;BME280;29067;35.492;-97.520;2023-04-09T10:27:33;97760.09;;;11.47;26.11
43480;BME280;29067;35.492;-97.520;2023-04-09T10:30:01;97759.94;;;11.79;25.87
43480;BME280;29067;35.492;-97.520;2023-04-09T10:32:34;97764.90;;;11.89;26.20
43480;BME280;29067;35.492;-97.520;2023-04-09T10:35:03;97765.28;;;12.38;25.92
43480;BME280;29067;35.492;-97.520;2023-04-09T10:37:31;97768.64;;;11.94;25.98
43480;BME280;29067;35.492;-97.520;2023-04-09T10:39:58;97765.56;;;12.66;25.17
43480;BME280;29067;35.492;-97.520;2023-04-09T10:42:33;97777.24;;;11.03;26.00
43480;BME280;29067;35.492;-97.520;2023-04-09T10:45:07;97778.13;;;12.31;27.11
43480;BME280;29067;35.492;-97.520;2023-04-09T10:47:37;97783.45;;;11.48;26.46
43480;BME280;29067;35.492;-97.520;2023-04-09T10:50:23;97782.15;;;12.11;26.48
43480;BME280;29067;35.492;-97.520;2023-04-09T10:52:52;97781.04;;;11.84;26.06
43480;BME280;29067;35.492;-97.520;2023-04-09T10:55:37;97782.68;;;11.63;25.97
43480;BME280;29067;35.492;-97.520;2023-04-09T10:58:06;97782.72;;;11.80;25.50
43480;BME280;29067;35.492;-97.520;2023-04-09T11:03:18;97786.33;;;11.42;25.68
43480;BME280;29067;35.492;-97.520;2023-04-09T11:05:49;97788.03;;;11.37;25.52
43480;BME280;29067;35.492;-97.520;2023-04-09T11:08:18;97790.33;;;11.44;25.72
43480;BME280;29067;35.492;-97.520;2023-04-09T11:10:47;97796.83;;;11.02;25.82
43480;BME280;29067;35.492;-97.520;2023-04-09T11:13:16;97800.60;;;10.83;26.15
43480;BME280;29067;35.492;-97.520;2023-04-09T11:15:46;97798.75;;;10.58;26.25
43480;BME280;29067;35.492;-97.520;2023-04-09T11:18:15;97798.89;;;10.46;26.03
43480;BME280;29067;35.492;-97.520;2023-04-09T11:20:49;97804.00;;;11.17;25.54
43480;BME280;29067;35.492;-97.520;2023-04-09T11:23:17;97809.18;;;10.85;26.10
43480;BME280;29067;35.492;-97.520;2023-04-09T11:25:49;97807.83;;;11.02;25.58
43480;BME280;29067;35.492;-97.520;2023-04-09T11:28:18;97813.50;;;9.99;26.42
43480;BME280;29067;35.492;-97.520;2023-04-09T11:30:48;97809.39;;;10.42;26.02
43480;BME280;29067;35.492;-97.520;2023-04-09T11:33:16;97810.34;;;11.01;26.06
43480;BME280;29067;35.492;-97.520;2023-04-09T11:35:44;97808.38;;;10.27;25.69
43480;BME280;29067;35.492;-97.520;2023-04-09T11:38:13;97814.08;;;11.29;25.22
43480;BME280;29067;35.492;-97.520;2023-04-09T11:40:42;97811.52;;;11.25;25.59
43480;BME280;29067;35.492;-97.520;2023-04-09T11:43:10;97812.76;;;11.24;25.07
43480;BME280;29067;35.492;-97.520;2023-04-09T11:45:38;97813.11;;;10.86;25.25
43480;BME280;29067;35.492;-97.520;2023-04-09T11:48:06;97811.44;;;10.74;25.51
43480;BME280;29067;35.492;-97.520;2023-04-09T11:50:35;97819.28;;;9.82;26.34
43480;BME280;29067;35.492;-97.520;2023-04-09T11:53:16;97819.03;;;9.26;26.62
43480;BME280;29067;35.492;-97.520;2023-04-09T11:55:46;97818.13;;;10.03;26.10
43480;BME280;29067;35.492;-97.520;2023-04-09T11:58:16;97821.91;;;10.26;26.06
43480;BME280;29067;35.492;-97.520;2023-04-09T12:00:44;97825.52;;;10.46;26.12
43480;BME280;29067;35.492;-97.520;2023-04-09T12:03:12;97829.71;;;10.72;25.70
43480;BME280;29067;35.492;-97.520;2023-04-09T12:05:45;97834.60;;;10.74;25.82
43480;BME280;29067;35.492;-97.520;2023-04-09T12:08:13;97836.95;;;10.65;25.95
43480;BME280;29067;35.492;-97.520;2023-04-09T12:10:51;97837.37;;;10.56;26.22
43480;BME280;29067;35.492;-97.520;2023-04-09T12:13:20;97836.45;;;10.45;26.17
43480;BME280;29067;35.492;-97.520;2023-04-09T12:15:49;97838.98;;;10.55;26.08
43480;BME280;29067;35.492;-97.520;2023-04-09T12:18:17;97850.02;;;8.80;27.57
43480;BME280;29067;35.492;-97.520;2023-04-09T12:20:48;97846.88;;;10.32;26.65
43480;BME280;29067;35.492;-97.520;2023-04-09T12:23:16;97850.28;;;10.31;26.29
43480;BME280;29067;35.492;-97.520;2023-04-09T12:25:45;97852.79;;;10.56;26.31
43480;BME280;29067;35.492;-97.520;2023-04-09T12:28:15;97853.24;;;11.43;26.15
43480;BME280;29067;35.492;-97.520;2023-04-09T12:30:43;97852.51;;;10.61;26.55
43480;BME280;29067;35.492;-97.520;2023-04-09T12:33:11;97855.04;;;10.38;26.60
43480;BME280;29067;35.492;-97.520;2023-04-09T12:35:46;97857.30;;;10.35;26.78
43480;BME280;29067;35.492;-97.520;2023-04-09T12:38:14;97866.43;;;9.74;27.28
43480;BME280;29067;35.492;-97.520;2023-04-09T12:40:43;97871.31;;;10.32;27.17
43480;BME280;29067;35.492;-97.520;2023-04-09T12:43:12;97872.84;;;10.43;27.38
43480;BME280;29067;35.492;-97.520;2023-04-09T12:45:40;97873.19;;;11.41;26.83
43480;BME280;29067;35.492;-97.520;2023-04-09T12:48:08;97877.24;;;9.57;28.02
43480;BME280;29067;35.492;-97.520;2023-04-09T12:50:37;97879.62;;;9.94;27.48
43480;BME280;29067;35.492;-97.520;2023-04-09T12:53:05;97884.56;;;11.41;27.16
43480;BME280;29067;35.492;-97.520;2023-04-09T12:55:32;97891.33;;;10.04;28.37